sensor_id;sensor_type;location;lat;lon;timestamp;pressure;altitude;pressure_sealevel;temperature;humidity
33422;BME280;19763;55.798;37.782;2022-12-01T00:00:37;102235.88;;;-9.96;80.09
33422;BME280;19763;55.798;37.782;2022-12-01T00:03:03;102238.22;;;-9.98;80.54
33422;BME280;19763;55.798;37.782;2022-12-01T00:05:29;102226.47;;;-10.15;81.06
33422;BME280;19763;55.798;37.782;2022-12-01T00:07:54;102232.44;;;-10.06;80.41
33422;BME280;19763;55.798;37.782;2022-12-01T00:10:22;102236.56;;;-10.06;79.37
33422;BME280;19763;55.798;37.782;2022-12-01T00:12:55;102206.84;;;-10.19;80.62
33422;BME280;19763;55.798;37.782;2022-12-01T00:15:24;102237.03;;;-10.01;79.83
33422;BME280;19763;55.798;37.782;2022-12-01T00:17:50;102231.22;;;-10.09;80.76
33422;BME280;19763;55.798;37.782;2022-12-01T00:20:16;102232.09;;;-10.17;81.50
33422;BME280;19763;55.798;37.782;2022-12-01T00:22:44;102220.28;;;-10.18;80.73
33422;BME280;19763;55.798;37.782;2022-12-01T00:25:11;102237.34;;;-10.23;80.54
33422;BME280;19763;55.798;37.782;2022-12-01T00:27:38;102228.16;;;-10.07;80.87
33422;BME280;19763;55.798;37.782;2022-12-01T00:30:05;102239.75;;;-10.16;80.11
33422;BME280;19763;55.798;37.782;2022-12-01T00:32:31;102223.81;;;-10.16;80.13
33422;BME280;19763;55.798;37.782;2022-12-01T00:34:56;102230.34;;;-10.10;81.33
33422;BME280;19763;55.798;37.782;2022-12-01T00:37:22;102227.69;;;-10.11;79.29
33422;BME280;19763;55.798;37.782;2022-12-01T00:39:48;102224.22;;;-10.04;79.59
33422;BME280;19763;55.798;37.782;2022-12-01T00:42:13;102229.31;;;-9.87;79.09
33422;BME280;19763;55.798;37.782;2022-12-01T00:44:39;102233.75;;;-9.84;79.86
33422;BME280;19763;55.798;37.782;2022-12-01T00:47:04;102237.06;;;-9.68;79.77
33422;BME280;19763;55.798;37.782;2022-12-01T00:49:30;102234.44;;;-9.94;77.47
33422;BME280;19763;55.798;37.782;2022-12-01T00:51:56;102233.16;;;-9.82;79.24
33422;BME280;19763;55.798;37.782;2022-12-01T00:54:22;102230.75;;;-9.89;79.79
33422;BME280;19763;55.798;37.782;2022-12-01T00:56:47;102227.47;;;-9.72;78.10
33422;BME280;19763;55.798;37.782;2022-12-01T00:59:13;102222.75;;;-9.69;79.00
33422;BME280;19763;55.798;37.782;2022-12-01T01:01:38;102217.47;;;-9.63;79.26
33422;BME280;19763;55.798;37.782;2022-12-01T01:04:04;102212.06;;;-9.50;78.88
33422;BME280;19763;55.798;37.782;2022-12-01T01:06:30;102208.38;;;-9.54;78.68
33422;BME280;19763;55.798;37.782;2022-12-01T01:08:55;102218.75;;;-9.42;77.03
33422;BME280;19763;55.798;37.782;2022-12-01T01:11:21;102226.69;;;-9.46;77.04
33422;BME280;19763;55.798;37.782;2022-12-01T01:13:47;102223.88;;;-9.49;78.04
33422;BME280;19763;55.798;37.782;2022-12-01T01:16:15;102196.13;;;-9.60;77.06
33422;BME280;19763;55.798;37.782;2022-12-01T01:18:41;102215.22;;;-9.44;77.84
33422;BME280;19763;55.798;37.782;2022-12-01T01:21:09;102194.91;;;-9.63;76.29
33422;BME280;19763;55.798;37.782;2022-12-01T01:23:35;102228.91;;;-9.49;77.32
33422;BME280;19763;55.798;37.782;2022-12-01T01:26:09;102241.31;;;-9.42;76.42
33422;BME280;19763;55.798;37.782;2022-12-01T01:28:36;102214.31;;;-9.45;76.61
33422;BME280;19763;55.798;37.782;2022-12-01T01:31:05;102229.19;;;-9.46;76.99
33422;BME280;19763;55.798;37.782;2022-12-01T01:33:32;102209.25;;;-9.54;75.92
33422;BME280;19763;55.798;37.782;2022-12-01T01:35:58;102206.13;;;-9.68;76.39
33422;BME280;19763;55.798;37.782;2022-12-01T01:38:27;102217.44;;;-9.72;77.51
33422;BME280;19763;55.798;37.782;2022-12-01T01:40:53;102224.22;;;-9.71;78.13
33422;BME280;19763;55.798;37.782;2022-12-01T01:46:08;102220.47;;;-9.59;77.28
33422;BME280;19763;55.798;37.782;2022-12-01T01:48:35;102209.34;;;-9.69;77.04
33422;BME280;19763;55.798;37.782;2022-12-01T01:51:02;102208.53;;;-9.52;77.18
33422;BME280;19763;55.798;37.782;2022-12-01T01:53:29;102201.09;;;-9.68;76.78
33422;BME280;19763;55.798;37.782;2022-12-01T01:55:55;102212.31;;;-9.65;77.48
33422;BME280;19763;55.798;37.782;2022-12-01T01:58:22;102214.09;;;-9.64;76.43
33422;BME280;19763;55.798;37.782;2022-12-01T02:00:47;102216.00;;;-9.70;76.19
33422;BME280;19763;55.798;37.782;2022-12-01T02:03:15;102192.97;;;-9.99;76.61
33422;BME280;19763;55.798;37.782;2022-12-01T02:05:42;102217.94;;;-9.92;78.73
33422;BME280;19763;55.798;37.782;2022-12-01T02:08:11;102217.22;;;-10.16;79.54
33422;BME280;19763;55.798;37.782;2022-12-01T02:16:15;102199.59;;;-10.25;79.02
33422;BME280;19763;55.798;37.782;2022-12-01T02:19:22;102225.69;;;-9.98;78.63
33422;BME280;19763;55.798;37.782;2022-12-01T02:22:17;102227.91;;;-10.01;78.70
33422;BME280;19763;55.798;37.782;2022-12-01T02:30:09;102222.69;;;-9.86;79.25
33422;BME280;19763;55.798;37.782;2022-12-01T02:35:48;102224.97;;;-9.72;76.62
33422;BME280;19763;55.798;37.782;2022-12-01T02:38:39;102227.50;;;-9.63;76.69
33422;BME280;19763;55.798;37.782;2022-12-01T02:41:26;102201.78;;;-9.78;76.66
33422;BME280;19763;55.798;37.782;2022-12-01T02:46:40;102183.16;;;-10.14;78.00
33422;BME280;19763;55.798;37.782;2022-12-01T02:49:14;102203.16;;;-9.98;77.54
33422;BME280;19763;55.798;37.782;2022-12-01T02:51:43;102184.91;;;-10.46;77.74
33422;BME280;19763;55.798;37.782;2022-12-01T02:54:11;102194.19;;;-10.45;78.93
33422;BME280;19763;55.798;37.782;2022-12-01T02:56:37;102205.19;;;-10.36;78.81
33422;BME280;19763;55.798;37.782;2022-12-01T02:59:10;102211.81;;;-10.28;77.18
33422;BME280;19763;55.798;37.782;2022-12-01T03:16:11;102108.78;;;-10.39;77.37
33422;BME280;19763;55.798;37.782;2022-12-01T03:21:19;102200.59;;;-10.07;76.97
33422;BME280;19763;55.798;37.782;2022-12-01T03:23:52;102182.81;;;-10.26;77.52
33422;BME280;19763;55.798;37.782;2022-12-01T03:26:20;102206.63;;;-10.38;78.76
33422;BME280;19763;55.798;37.782;2022-12-01T03:28:53;102203.56;;;-10.51;77.48
33422;BME280;19763;55.798;37.782;2022-12-01T03:31:25;102186.13;;;-10.43;77.92
33422;BME280;19763;55.798;37.782;2022-12-01T03:33:57;102179.41;;;-10.51;77.38
33422;BME280;19763;55.798;37.782;2022-12-01T03:36:30;102183.59;;;-10.43;78.98
33422;BME280;19763;55.798;37.782;2022-12-01T03:39:01;102195.16;;;-10.36;77.68
33422;BME280;19763;55.798;37.782;2022-12-01T03:41:36;102160.97;;;-10.35;76.80
33422;BME280;19763;55.798;37.782;2022-12-01T03:44:13;102171.25;;;-10.32;77.25
33422;BME280;19763;55.798;37.782;2022-12-01T03:47:08;102194.06;;;-10.13;77.37
33422;BME280;19763;55.798;37.782;2022-12-01T03:49:35;102193.50;;;-10.11;77.17
33422;BME280;19763;55.798;37.782;2022-12-01T04:00:31;102193.50;;;-10.11;75.47
33422;BME280;19763;55.798;37.782;2022-12-01T04:02:59;102204.44;;;-10.10;77.68
33422;BME280;19763;55.798;37.782;2022-12-01T04:05:27;102191.00;;;-10.11;75.76
33422;BME280;19763;55.798;37.782;2022-12-01T04:07:53;102208.00;;;-9.99;77.42
33422;BME280;19763;55.798;37.782;2022-12-01T04:10:18;102203.56;;;-10.02;76.91
33422;BME280;19763;55.798;37.782;2022-12-01T04:12:44;102197.53;;;-10.04;75.44
33422;BME280;19763;55.798;37.782;2022-12-01T04:15:11;102179.03;;;-10.13;76.48
33422;BME280;19763;55.798;37.782;2022-12-01T04:17:39;102211.84;;;-10.03;76.28
33422;BME280;19763;55.798;37.782;2022-12-01T04:20:08;102204.16;;;-10.04;74.92
33422;BME280;19763;55.798;37.782;2022-12-01T04:22:35;102194.16;;;-10.04;74.88
33422;BME280;19763;55.798;37.782;2022-12-01T04:25:01;102206.97;;;-10.01;74.78
33422;BME280;19763;55.798;37.782;2022-12-01T04:27:28;102196.47;;;-10.06;74.76
33422;BME280;19763;55.798;37.782;2022-12-01T04:29:54;102194.16;;;-10.04;75.45
33422;BME280;19763;55.798;37.782;2022-12-01T04:32:19;102202.28;;;-9.98;75.40
33422;BME280;19763;55.798;37.782;2022-12-01T04:34:45;102211.09;;;-10.02;74.02
33422;BME280;19763;55.798;37.782;2022-12-01T04:37:10;102211.19;;;-10.09;74.68
33422;BME280;19763;55.798;37.782;2022-12-01T04:39:36;102205.31;;;-10.10;76.20
33422;BME280;19763;55.798;37.782;2022-12-01T04:42:02;102208.22;;;-10.14;74.64
33422;BME280;19763;55.798;37.782;2022-12-01T04:44:27;102206.47;;;-10.06;75.71
33422;BME280;19763;55.798;37.782;2022-12-01T04:46:53;102200.44;;;-10.08;74.55
33422;BME280;19763;55.798;37.782;2022-12-01T04:49:19;102207.28;;;-9.98;76.51
33422;BME280;19763;55.798;37.782;2022-12-01T04:51:46;102202.44;;;-9.97;76.71
33422;BME280;19763;55.798;37.782;2022-12-01T04:54:12;102197.09;;;-10.00;75.71
33422;BME280;19763;55.798;37.782;2022-12-01T04:56:37;102203.31;;;-9.96;75.00
33422;BME280;19763;55.798;37.782;2022-12-01T04:59:03;102207.47;;;-9.88;76.08
33422;BME280;19763;55.798;37.782;2022-12-01T05:01:28;102211.31;;;-9.92;74.28
33422;BME280;19763;55.798;37.782;2022-12-01T05:03:54;102216.78;;;-9.87;74.80
33422;BME280;19763;55.798;37.782;2022-12-01T05:06:23;102193.13;;;-9.98;75.80
33422;BME280;19763;55.798;37.782;2022-12-01T05:08:50;102219.59;;;-9.84;74.28
33422;BME280;19763;55.798;37.782;2022-12-01T05:11:18;102198.28;;;-9.96;76.24
33422;BME280;19763;55.798;37.782;2022-12-01T05:13:46;102239.09;;;-9.81;74.92
33422;BME280;19763;55.798;37.782;2022-12-01T05:16:17;102194.59;;;-10.00;74.06
33422;BME280;19763;55.798;37.782;2022-12-01T05:18:46;102217.81;;;-9.85;76.26
33422;BME280;19763;55.798;37.782;2022-12-01T05:21:11;102222.25;;;-9.82;74.52
33422;BME280;19763;55.798;37.782;2022-12-01T05:23:37;102208.81;;;-9.92;75.92
33422;BME280;19763;55.798;37.782;2022-12-01T05:26:05;102213.94;;;-9.99;75.02
33422;BME280;19763;55.798;37.782;2022-12-01T05:28:31;102203.53;;;-10.11;75.15
33422;BME280;19763;55.798;37.782;2022-12-01T05:30:57;102218.06;;;-9.91;76.94
33422;BME280;19763;55.798;37.782;2022-12-01T05:33:24;102217.00;;;-10.01;76.15
33422;BME280;19763;55.798;37.782;2022-12-01T05:35:50;102220.59;;;-9.91;76.13
33422;BME280;19763;55.798;37.782;2022-12-01T05:38:17;102222.97;;;-9.83;75.03
33422;BME280;19763;55.798;37.782;2022-12-01T05:40:49;102198.13;;;-9.98;76.41
33422;BME280;19763;55.798;37.782;2022-12-01T05:43:15;102207.47;;;-9.88;77.00
33422;BME280;19763;55.798;37.782;2022-12-01T05:45:41;102217.84;;;-9.76;76.35
33422;BME280;19763;55.798;37.782;2022-12-01T05:48:07;102201.28;;;-9.92;75.68
33422;BME280;19763;55.798;37.782;2022-12-01T05:50:33;102230.13;;;-9.71;74.50
33422;BME280;19763;55.798;37.782;2022-12-01T05:53:02;102233.53;;;-9.70;75.94
33422;BME280;19763;55.798;37.782;2022-12-01T05:55:28;102245.31;;;-9.69;75.66
33422;BME280;19763;55.798;37.782;2022-12-01T05:57:53;102243.47;;;-9.63;74.96
33422;BME280;19763;55.798;37.782;2022-12-01T06:00:19;102241.25;;;-9.60;76.60
33422;BME280;19763;55.798;37.782;2022-12-01T06:02:45;102246.28;;;-9.60;76.77
33422;BME280;19763;55.798;37.782;2022-12-01T06:05:10;102240.31;;;-9.94;76.36
33422;BME280;19763;55.798;37.782;2022-12-01T06:07:36;102242.88;;;-9.85;75.72
33422;BME280;19763;55.798;37.782;2022-12-01T06:10:05;102250.44;;;-9.76;75.41
33422;BME280;19763;55.798;37.782;2022-12-01T06:12:31;102248.44;;;-9.72;76.10
33422;BME280;19763;55.798;37.782;2022-12-01T06:14:59;102254.38;;;-9.87;75.86
33422;BME280;19763;55.798;37.782;2022-12-01T06:17:25;102247.28;;;-9.91;75.52
33422;BME280;19763;55.798;37.782;2022-12-01T06:19:50;102249.47;;;-9.69;75.76
33422;BME280;19763;55.798;37.782;2022-12-01T06:22:16;102246.91;;;-9.78;76.13
33422;BME280;19763;55.798;37.782;2022-12-01T06:24:41;102255.16;;;-9.79;75.69
33422;BME280;19763;55.798;37.782;2022-12-01T06:27:07;102257.28;;;-9.66;76.29
33422;BME280;19763;55.798;37.782;2022-12-01T06:29:32;102237.97;;;-9.67;75.13
33422;BME280;19763;55.798;37.782;2022-12-01T06:31:58;102247.78;;;-9.53;75.31
33422;BME280;19763;55.798;37.782;2022-12-01T06:34:24;102255.66;;;-9.41;74.86
33422;BME280;19763;55.798;37.782;2022-12-01T06:36:49;102253.00;;;-9.34;75.70
33422;BME280;19763;55.798;37.782;2022-12-01T06:39:15;102248.31;;;-9.31;75.58
33422;BME280;19763;55.798;37.782;2022-12-01T06:41:41;102243.13;;;-9.32;75.07
33422;BME280;19763;55.798;37.782;2022-12-01T06:44:07;102248.31;;;-9.22;75.96
33422;BME280;19763;55.798;37.782;2022-12-01T06:46:32;102242.88;;;-9.18;74.18
33422;BME280;19763;55.798;37.782;2022-12-01T06:48:58;102255.44;;;-9.09;75.14
33422;BME280;19763;55.798;37.782;2022-12-01T06:51:23;102257.38;;;-9.15;75.55
33422;BME280;19763;55.798;37.782;2022-12-01T06:53:53;102259.47;;;-9.03;75.53
33422;BME280;19763;55.798;37.782;2022-12-01T06:56:19;102262.97;;;-9.18;75.50
33422;BME280;19763;55.798;37.782;2022-12-01T06:58:45;102241.84;;;-9.20;75.85
33422;BME280;19763;55.798;37.782;2022-12-01T07:01:11;102254.09;;;-9.23;75.45
33422;BME280;19763;55.798;37.782;2022-12-01T07:03:38;102257.66;;;-9.12;74.61
33422;BME280;19763;55.798;37.782;2022-12-01T07:06:04;102249.38;;;-9.20;75.40
33422;BME280;19763;55.798;37.782;2022-12-01T07:08:30;102236.13;;;-9.52;75.79
33422;BME280;19763;55.798;37.782;2022-12-01T07:11:08;102227.34;;;-9.40;74.97
33422;BME280;19763;55.798;37.782;2022-12-01T07:13:35;102240.84;;;-9.13;74.51
33422;BME280;19763;55.798;37.782;2022-12-01T07:16:01;102241.72;;;-9.22;75.54
33422;BME280;19763;55.798;37.782;2022-12-01T07:18:28;102231.72;;;-9.04;76.00
33422;BME280;19763;55.798;37.782;2022-12-01T07:20:58;102243.28;;;-8.89;75.06
33422;BME280;19763;55.798;37.782;2022-12-01T07:23:24;102251.84;;;-8.78;75.13
33422;BME280;19763;55.798;37.782;2022-12-01T07:26:00;102231.75;;;-8.78;74.73
33422;BME280;19763;55.798;37.782;2022-12-01T07:28:27;102252.91;;;-8.67;74.43
33422;BME280;19763;55.798;37.782;2022-12-01T07:30:53;102235.31;;;-8.76;74.66
33422;BME280;19763;55.798;37.782;2022-12-01T07:33:18;102255.69;;;-8.73;73.96
33422;BME280;19763;55.798;37.782;2022-12-01T07:35:44;102255.78;;;-9.06;74.18
33422;BME280;19763;55.798;37.782;2022-12-01T07:38:09;102251.34;;;-9.42;75.61
33422;BME280;19763;55.798;37.782;2022-12-01T07:40:35;102252.84;;;-9.44;77.98
33422;BME280;19763;55.798;37.782;2022-12-01T07:43:00;102267.34;;;-9.33;78.08
33422;BME280;19763;55.798;37.782;2022-12-01T07:45:26;102288.97;;;-9.17;77.52
33422;BME280;19763;55.798;37.782;2022-12-01T07:47:52;102260.81;;;-9.06;76.61
33422;BME280;19763;55.798;37.782;2022-12-01T07:50:18;102267.50;;;-8.80;75.87
33422;BME280;19763;55.798;37.782;2022-12-01T07:52:48;102216.09;;;-8.93;75.40
33422;BME280;19763;55.798;37.782;2022-12-01T07:55:14;102267.25;;;-8.57;76.25
33422;BME280;19763;55.798;37.782;2022-12-01T07:57:39;102257.50;;;-8.45;75.13
33422;BME280;19763;55.798;37.782;2022-12-01T08:00:05;102263.09;;;-8.48;75.40
33422;BME280;19763;55.798;37.782;2022-12-01T08:02:32;102265.31;;;-8.34;75.53
33422;BME280;19763;55.798;37.782;2022-12-01T08:04:58;102259.66;;;-8.31;74.55
33422;BME280;19763;55.798;37.782;2022-12-01T08:07:24;102269.75;;;-8.48;73.88
33422;BME280;19763;55.798;37.782;2022-12-01T08:09:49;102263.09;;;-8.39;73.87
33422;BME280;19763;55.798;37.782;2022-12-01T08:12:15;102259.69;;;-8.40;74.41
33422;BME280;19763;55.798;37.782;2022-12-01T08:14:40;102258.22;;;-8.64;75.48
33422;BME280;19763;55.798;37.782;2022-12-01T08:17:06;102261.03;;;-8.43;75.30
33422;BME280;19763;55.798;37.782;2022-12-01T08:19:33;102245.06;;;-8.26;75.56
33422;BME280;19763;55.798;37.782;2022-12-01T08:21:58;102246.22;;;-8.32;74.59
33422;BME280;19763;55.798;37.782;2022-12-01T08:24:24;102244.19;;;-8.53;74.99
33422;BME280;19763;55.798;37.782;2022-12-01T08:26:49;102245.66;;;-8.29;75.31
33422;BME280;19763;55.798;37.782;2022-12-01T08:29:15;102239.84;;;-8.28;75.52
33422;BME280;19763;55.798;37.782;2022-12-01T08:31:41;102253.59;;;-8.07;74.29
33422;BME280;19763;55.798;37.782;2022-12-01T08:34:07;102263.63;;;-7.98;73.62
33422;BME280;19763;55.798;37.782;2022-12-01T08:36:33;102246.03;;;-7.98;73.92
33422;BME280;19763;55.798;37.782;2022-12-01T08:38:59;102237.53;;;-8.26;73.52
33422;BME280;19763;55.798;37.782;2022-12-01T08:41:25;102229.81;;;-8.37;73.52
33422;BME280;19763;55.798;37.782;2022-12-01T08:43:52;102230.28;;;-8.32;74.51
33422;BME280;19763;55.798;37.782;2022-12-01T08:46:18;102223.81;;;-8.47;74.30
33422;BME280;19763;55.798;37.782;2022-12-01T08:48:44;102241.47;;;-8.20;74.15
33422;BME280;19763;55.798;37.782;2022-12-01T08:51:15;102225.81;;;-8.26;73.72
33422;BME280;19763;55.798;37.782;2022-12-01T08:53:42;102237.19;;;-8.03;73.53
33422;BME280;19763;55.798;37.782;2022-12-01T08:56:18;102251.81;;;-7.99;74.06
33422;BME280;19763;55.798;37.782;2022-12-01T08:58:43;102234.38;;;-8.06;73.45
33422;BME280;19763;55.798;37.782;2022-12-01T09:01:12;102251.66;;;-7.83;73.17
33422;BME280;19763;55.798;37.782;2022-12-01T09:03:38;102221.53;;;-7.64;73.49
33422;BME280;19763;55.798;37.782;2022-12-01T09:06:07;102216.66;;;-7.54;73.42
33422;BME280;19763;55.798;37.782;2022-12-01T09:08:34;102226.63;;;-7.36;72.24
33422;BME280;19763;55.798;37.782;2022-12-01T09:11:06;102200.09;;;-7.33;72.31
33422;BME280;19763;55.798;37.782;2022-12-01T09:13:33;102239.22;;;-7.08;72.19
33422;BME280;19763;55.798;37.782;2022-12-01T09:16:05;102227.31;;;-7.29;71.47
33422;BME280;19763;55.798;37.782;2022-12-01T09:18:32;102220.69;;;-7.28;72.20
33422;BME280;19763;55.798;37.782;2022-12-01T09:20:58;102229.06;;;-7.19;72.54
33422;BME280;19763;55.798;37.782;2022-12-01T09:23:24;102217.47;;;-7.44;71.91
33422;BME280;19763;55.798;37.782;2022-12-01T09:25:51;102219.91;;;-7.55;72.09
33422;BME280;19763;55.798;37.782;2022-12-01T09:28:17;102222.84;;;-7.50;72.69
33422;BME280;19763;55.798;37.782;2022-12-01T09:30:44;102218.06;;;-7.47;72.85
33422;BME280;19763;55.798;37.782;2022-12-01T09:33:10;102221.28;;;-7.76;73.30
33422;BME280;19763;55.798;37.782;2022-12-01T09:35:36;102222.94;;;-7.76;73.45
33422;BME280;19763;55.798;37.782;2022-12-01T09:38:02;102212.56;;;-7.71;73.29
33422;BME280;19763;55.798;37.782;2022-12-01T09:40:35;102212.34;;;-7.55;73.19
33422;BME280;19763;55.798;37.782;2022-12-01T09:43:05;102221.28;;;-7.31;73.32
33422;BME280;19763;55.798;37.782;2022-12-01T09:45:39;102211.38;;;-7.38;73.13
33422;BME280;19763;55.798;37.782;2022-12-01T09:48:17;102218.84;;;-7.57;73.41
33422;BME280;19763;55.798;37.782;2022-12-01T09:50:45;102216.84;;;-7.33;73.04
33422;BME280;19763;55.798;37.782;2022-12-01T09:53:15;102208.75;;;-7.48;73.06
33422;BME280;19763;55.798;37.782;2022-12-01T09:55:42;102209.28;;;-7.33;73.98
33422;BME280;19763;55.798;37.782;2022-12-01T09:58:16;102186.22;;;-7.74;73.66
33422;BME280;19763;55.798;37.782;2022-12-01T10:00:43;102210.59;;;-7.65;74.37
33422;BME280;19763;55.798;37.782;2022-12-01T10:03:36;102207.63;;;-7.60;74.56
33422;BME280;19763;55.798;37.782;2022-12-01T10:06:12;102209.34;;;-7.42;74.76
33422;BME280;19763;55.798;37.782;2022-12-01T10:09:24;102205.38;;;-7.21;74.38
33422;BME280;19763;55.798;37.782;2022-12-01T10:11:55;102212.28;;;-7.09;74.05
33422;BME280;19763;55.798;37.782;2022-12-01T10:14:23;102220.56;;;-7.11;74.37
33422;BME280;19763;55.798;37.782;2022-12-01T10:30:34;102213.19;;;-7.46;75.22
33422;BME280;19763;55.798;37.782;2022-12-01T10:33:30;102210.53;;;-7.47;75.36
33422;BME280;19763;55.798;37.782;2022-12-01T10:35:58;102208.59;;;-7.41;76.02
33422;BME280;19763;55.798;37.782;2022-12-01T10:38:33;102187.50;;;-7.33;74.80
33422;BME280;19763;55.798;37.782;2022-12-01T10:41:00;102209.94;;;-7.44;74.76
33422;BME280;19763;55.798;37.782;2022-12-01T10:43:48;102191.81;;;-7.68;76.47
33422;BME280;19763;55.798;37.782;2022-12-01T10:48:59;102203.88;;;-7.47;76.19
33422;BME280;19763;55.798;37.782;2022-12-01T10:51:55;102187.66;;;-7.31;75.34
33422;BME280;19763;55.798;37.782;2022-12-01T10:54:27;102181.81;;;-7.21;75.70
33422;BME280;19763;55.798;37.782;2022-12-01T10:56:56;102206.59;;;-6.98;74.46
33422;BME280;19763;55.798;37.782;2022-12-01T11:01:58;102177.09;;;-6.99;73.65
33422;BME280;19763;55.798;37.782;2022-12-01T11:04:38;102202.63;;;-6.86;74.07
33422;BME280;19763;55.798;37.782;2022-12-01T11:07:43;102201.97;;;-6.94;73.27
33422;BME280;19763;55.798;37.782;2022-12-01T11:10:28;102167.75;;;-7.19;74.55
33422;BME280;19763;55.798;37.782;2022-12-01T11:18:37;102172.41;;;-7.05;74.52
33422;BME280;19763;55.798;37.782;2022-12-01T11:21:04;102191.63;;;-6.78;74.74
33422;BME280;19763;55.798;37.782;2022-12-01T11:23:30;102187.88;;;-6.72;74.75
33422;BME280;19763;55.798;37.782;2022-12-01T11:26:31;102190.03;;;-6.86;74.71
33422;BME280;19763;55.798;37.782;2022-12-01T11:29:04;102180.44;;;-7.09;74.04
33422;BME280;19763;55.798;37.782;2022-12-01T11:31:43;102185.13;;;-7.03;74.62
33422;BME280;19763;55.798;37.782;2022-12-01T11:34:24;102213.75;;;-6.84;74.13
33422;BME280;19763;55.798;37.782;2022-12-01T11:36:55;102199.69;;;-7.09;74.84
33422;BME280;19763;55.798;37.782;2022-12-01T11:39:28;102204.72;;;-7.09;75.29
33422;BME280;19763;55.798;37.782;2022-12-01T11:42:04;102173.66;;;-7.19;74.78
33422;BME280;19763;55.798;37.782;2022-12-01T11:44:32;102163.97;;;-7.33;75.82
33422;BME280;19763;55.798;37.782;2022-12-01T11:47:13;102163.13;;;-7.34;74.89
33422;BME280;19763;55.798;37.782;2022-12-01T11:49:41;102182.81;;;-7.11;75.93
33422;BME280;19763;55.798;37.782;2022-12-01T11:52:30;102188.66;;;-7.01;75.39
33422;BME280;19763;55.798;37.782;2022-12-01T11:57:23;102192.13;;;-7.37;75.05
33422;BME280;19763;55.798;37.782;2022-12-01T11:59:49;102187.38;;;-7.34;76.21
33422;BME280;19763;55.798;37.782;2022-12-01T12:08:44;102203.75;;;-7.20;75.68
33422;BME280;19763;55.798;37.782;2022-12-01T12:11:13;102211.50;;;-7.08;75.07
33422;BME280;19763;55.798;37.782;2022-12-01T12:22:18;102193.47;;;-7.69;76.24
33422;BME280;19763;55.798;37.782;2022-12-01T12:25:00;102212.00;;;-7.40;76.73
33422;BME280;19763;55.798;37.782;2022-12-01T12:35:58;102193.91;;;-7.73;77.27
33422;BME280;19763;55.798;37.782;2022-12-01T12:38:38;102194.91;;;-7.62;76.67
33422;BME280;19763;55.798;37.782;2022-12-01T12:51:54;102214.44;;;-8.13;77.93
33422;BME280;19763;55.798;37.782;2022-12-01T12:54:49;102204.72;;;-7.83;77.73
33422;BME280;19763;55.798;37.782;2022-12-01T12:57:21;102204.22;;;-8.06;77.58
33422;BME280;19763;55.798;37.782;2022-12-01T13:00:05;102213.53;;;-7.96;77.81
33422;BME280;19763;55.798;37.782;2022-12-01T13:08:01;102205.69;;;-7.91;77.41
33422;BME280;19763;55.798;37.782;2022-12-01T13:10:35;102200.31;;;-7.76;77.77
33422;BME280;19763;55.798;37.782;2022-12-01T13:15:40;102216.50;;;-8.01;77.47
33422;BME280;19763;55.798;37.782;2022-12-01T13:20:48;102188.13;;;-8.26;78.11
33422;BME280;19763;55.798;37.782;2022-12-01T13:23:17;102184.16;;;-8.41;76.97
33422;BME280;19763;55.798;37.782;2022-12-01T13:25:48;102205.88;;;-8.24;77.95
33422;BME280;19763;55.798;37.782;2022-12-01T13:28:29;102184.72;;;-8.35;77.84
33422;BME280;19763;55.798;37.782;2022-12-01T13:31:10;102180.03;;;-8.32;76.66
33422;BME280;19763;55.798;37.782;2022-12-01T13:33:43;102226.25;;;-8.21;76.96
33422;BME280;19763;55.798;37.782;2022-12-01T13:36:10;102213.53;;;-8.14;76.84
33422;BME280;19763;55.798;37.782;2022-12-01T13:38:37;102209.56;;;-8.12;76.93
33422;BME280;19763;55.798;37.782;2022-12-01T13:41:20;102211.78;;;-8.15;76.77
33422;BME280;19763;55.798;37.782;2022-12-01T13:57:35;102214.81;;;-7.91;76.72
33422;BME280;19763;55.798;37.782;2022-12-01T14:03:31;102202.88;;;-8.11;76.68
33422;BME280;19763;55.798;37.782;2022-12-01T14:06:10;102208.63;;;-8.04;76.15
33422;BME280;19763;55.798;37.782;2022-12-01T14:08:46;102166.09;;;-8.28;75.83
33422;BME280;19763;55.798;37.782;2022-12-01T14:11:23;102203.63;;;-8.12;75.80
33422;BME280;19763;55.798;37.782;2022-12-01T14:14:02;102199.75;;;-8.00;76.55
33422;BME280;19763;55.798;37.782;2022-12-01T14:16:51;102172.00;;;-8.10;76.01
33422;BME280;19763;55.798;37.782;2022-12-01T14:19:41;102167.13;;;-8.35;76.11
33422;BME280;19763;55.798;37.782;2022-12-01T14:24:59;102174.22;;;-8.13;75.74
33422;BME280;19763;55.798;37.782;2022-12-01T14:27:37;102181.44;;;-8.17;75.44
33422;BME280;19763;55.798;37.782;2022-12-01T14:39:11;102189.69;;;-7.91;75.61
33422;BME280;19763;55.798;37.782;2022-12-01T14:42:57;102170.91;;;-7.95;74.91
33422;BME280;19763;55.798;37.782;2022-12-01T14:45:22;102174.63;;;-8.00;74.89
33422;BME280;19763;55.798;37.782;2022-12-01T14:48:02;102177.25;;;-7.90;75.44
33422;BME280;19763;55.798;37.782;2022-12-01T14:50:36;102158.09;;;-8.16;75.47
33422;BME280;19763;55.798;37.782;2022-12-01T14:53:23;102183.34;;;-7.96;75.29
33422;BME280;19763;55.798;37.782;2022-12-01T14:55:55;102160.59;;;-8.16;76.13
33422;BME280;19763;55.798;37.782;2022-12-01T14:58:27;102145.16;;;-8.38;76.12
33422;BME280;19763;55.798;37.782;2022-12-01T15:01:13;102166.09;;;-8.20;76.14
33422;BME280;19763;55.798;37.782;2022-12-01T15:03:42;102169.31;;;-8.03;75.10
33422;BME280;19763;55.798;37.782;2022-12-01T15:06:18;102165.88;;;-7.86;75.32
33422;BME280;19763;55.798;37.782;2022-12-01T15:08:44;102175.00;;;-7.87;74.89
33422;BME280;19763;55.798;37.782;2022-12-01T15:11:22;102151.59;;;-8.13;75.03
33422;BME280;19763;55.798;37.782;2022-12-01T15:13:50;102175.22;;;-8.03;74.73
33422;BME280;19763;55.798;37.782;2022-12-01T15:16:25;102166.13;;;-8.37;74.36
33422;BME280;19763;55.798;37.782;2022-12-01T15:18:51;102150.66;;;-8.51;75.85